Santa Maria, CA

8:32 AM PDT on October 02, 2014 (GMT -0700)
Harp Springs | Change Station
CLOSE
Current Station
Personal Weather Station
Location: Santa Maria, CA
Elevation: 466 ft
Nearby Weather Stations
Active Advisory: Special Statement

Elev 466 ft 34.86 °N, 120.41 °W | Updated 14 minutes ago

Clear
Clear
69.4 °F
Feels Like 69.4 °F
N
0.0
Wind Variable Wind from East

Today
High -- | Low -- °F
--% Chance of Precip.
Yesterday
High -- | Low -- °F
Precip. -- in
6:56 AM 6:43 PM
First Quarter, 59% visible
Pressure 29.96 in
Visibility 9.0 miles
Clouds Clear
Dew Point 49 °F
Humidity 49%
Rainfall 0.00 in
Snow Depth 1 in , 0 in , 0 in
UV 1 out of 12
Pollen 5.90 out of 12
PM2.5 Good
Flu Activity Not available.
METAR KSMX 021451Z 00000KT 9SM CLR 17/08 A2996 RMK AO2 SLP146 T01670083 51018

More Conditions Fewer Conditions

Pressure 29.96 in
Visibility 9.0 miles
Clouds Clear
Dew Point 49 °F
Humidity 49%
Rainfall 0.00 in
Snow Depth 1 in , 0 in , 0 in
UV 1 out of 12
Pollen 5.90 out of 12
PM2.5 Good
Flu Activity Not available.
METAR KSMX 021451Z 00000KT 9SM CLR 17/08 A2996 RMK AO2 SLP146 T01670083 51018

More Conditions Fewer Conditions

10-Day Weather Forecast

Almanac

Astronomy

Oct. 02, 2014 Rise Set
Actual Time 6:56 AM PDT 6:43 PM PDT
Civil Twilight 6:31 AM PDT 7:08 PM PDT
Nautical Twilight 6:02 AM PDT 7:38 PM PDT
Astronomical Twilight 5:32 AM PDT 8:07 PM PDT
Moon 2:42 PM PDT 12:31 AM PDT
Length of Visible Light 12h 37m
Length of Day
11h 46m
Tomorrow will be 2m 10s shorter.
First Quarter, 59% of the Moon is Illuminated
Today
First Quarter
Oct 8
Full
Oct 15
Last Quarter
Oct 23
New
Oct 30
First Quarter

Today's Extremes

State Highs State Lows

Community

WunderPhotos

Upload Photos

1,758,276 photos uploaded!

WunderBlogs® & News

Nearby

Air Quality

  Air Quality AQ Index Pollutant
Yesterday Good
OZONE
Yesterday Good
PM10
Current Good
PM2.5
Thursday Good
PM2.5
Thursday Good
OZONE

Snow Depth

Station Depth Elevation
Burnside Lake 1 in 8139 ft
Ebbetts Pass 0 in 8700 ft
Heavenly Valley 0 in 8850 ft
Hagan's Meadow 0 in 8000 ft
Squaw Valley 0 in 8200 ft

Earthquake Activity

City Distance Mag. Time & Date
South Dos Palos, California 124 miles 3.0 11:17 AM PDT
2014-10-01
Shandon, California 62 miles 2.9 5:34 PM PDT
2014-09-30
South Dos Palos, California 124 miles 2.7 3:08 PM PDT
2014-09-30
South Dos Palos, California 124 miles 2.5 9:18 PM PDT
2014-09-29
Minimum magnitude displayed is 2.5.

Coastal Water Temperatures

Place Temperature
Port San Luis, CA 59.0 °F
Santa Monica Pier 70.0 °F

Nearby Weather Stations